createdAt,value
2023-02-26T00:01:25.250Z,-0.64
2023-02-26T00:03:53.865Z,-0.65
2023-02-26T00:06:21.204Z,-0.68
2023-02-26T00:08:50.001Z,-0.73
2023-02-26T00:11:17.010Z,-0.65
2023-02-26T00:13:44.943Z,-0.81
2023-02-26T00:16:31.825Z,-0.82
2023-02-26T00:19:00.841Z,-0.71
2023-02-26T00:21:28.645Z,-0.65
2023-02-26T00:23:56.421Z,-0.58
2023-02-26T00:26:24.399Z,-0.76
2023-02-26T00:28:51.362Z,-0.63
2023-02-26T00:31:21.206Z,-0.68
2023-02-26T00:33:48.687Z,-0.81
2023-02-26T00:36:33.756Z,-0.72
2023-02-26T00:39:15.119Z,-0.53
2023-02-26T00:41:42.315Z,-0.56
2023-02-26T00:44:09.208Z,-0.55
2023-02-26T00:47:18.359Z,-0.56
2023-02-26T00:50:17.602Z,-0.67
2023-02-26T00:53:03.734Z,-0.52
2023-02-26T00:55:34.603Z,-0.50
2023-02-26T00:58:01.354Z,-0.57
2023-02-26T01:00:28.345Z,-0.57
2023-02-26T01:02:55.468Z,-0.52
2023-02-26T01:05:22.467Z,-0.58
2023-02-26T01:08:10.313Z,-0.58
2023-02-26T01:10:37.652Z,-0.63
2023-02-26T01:13:04.805Z,-0.62
2023-02-26T01:15:31.759Z,-0.62
2023-02-26T01:18:06.510Z,-0.70
2023-02-26T01:20:46.387Z,-0.60
2023-02-26T01:23:16.692Z,-0.63
2023-02-26T01:25:50.618Z,-0.62
2023-02-26T01:28:17.696Z,-0.62
2023-02-26T01:30:47.014Z,-0.61
2023-02-26T01:33:35.057Z,-0.61
2023-02-26T01:36:08.611Z,-0.78
2023-02-26T01:38:38.003Z,-0.65
2023-02-26T01:41:21.629Z,-0.62
2023-02-26T01:44:04.682Z,-0.70
2023-02-26T01:46:49.076Z,-0.68
2023-02-26T01:49:17.616Z,-0.69
2023-02-26T01:51:51.885Z,-0.69
2023-02-26T01:54:37.545Z,-0.64
2023-02-26T01:57:09.849Z,-0.73
2023-02-26T01:59:39.559Z,-0.59
2023-02-26T02:02:08.064Z,-0.56
2023-02-26T02:04:34.845Z,-0.52
2023-02-26T02:07:01.966Z,-0.53
2023-02-26T02:09:28.655Z,-0.57
2023-02-26T02:12:07.751Z,-0.60
2023-02-26T02:15:10.601Z,-0.61
2023-02-26T02:17:41.048Z,-0.63
2023-02-26T02:20:27.762Z,-0.61
2023-02-26T02:23:22.608Z,-0.60
2023-02-26T02:26:18.400Z,-0.52
2023-02-26T02:29:22.897Z,-0.48
2023-02-26T02:32:03.246Z,-0.50
2023-02-26T02:34:41.729Z,-0.57
2023-02-26T02:37:23.414Z,-0.56
2023-02-26T02:39:54.784Z,-0.49
2023-02-26T02:42:38.375Z,-0.50
2023-02-26T02:45:12.144Z,-0.52
2023-02-26T02:47:42.115Z,-0.55
2023-02-26T02:50:39.015Z,-0.50
2023-02-26T02:53:11.682Z,-0.54
2023-02-26T02:55:43.428Z,-0.45
2023-02-26T02:58:17.522Z,-0.46
2023-02-26T03:00:49.094Z,-0.39
2023-02-26T03:03:28.405Z,-0.52
2023-02-26T03:05:55.113Z,-0.49
2023-02-26T03:08:25.619Z,-0.46
2023-02-26T03:10:52.221Z,-0.55
2023-02-26T03:13:21.962Z,-0.50
2023-02-26T03:16:26.599Z,-0.49
2023-02-26T03:19:14.785Z,-0.53
2023-02-26T03:21:57.746Z,-0.58
2023-02-26T03:24:48.411Z,-0.48
2023-02-26T03:27:18.018Z,-0.51
2023-02-26T03:30:01.485Z,-0.48
2023-02-26T03:32:34.029Z,-0.41
2023-02-26T03:35:07.100Z,-0.43
2023-02-26T03:37:42.979Z,-0.41
2023-02-26T03:40:14.119Z,-0.38
2023-02-26T03:42:55.555Z,-0.36
2023-02-26T03:45:26.747Z,-0.57
2023-02-26T03:47:54.215Z,-0.50
2023-02-26T03:50:34.198Z,-0.36
2023-02-26T03:53:03.500Z,-0.38
2023-02-26T03:55:45.544Z,-0.48
2023-02-26T03:58:12.234Z,-0.35
2023-02-26T04:00:43.103Z,-0.32
2023-02-26T04:03:25.732Z,-0.45
2023-02-26T04:05:52.807Z,-0.35
2023-02-26T04:08:21.616Z,-0.29
2023-02-26T04:11:10.243Z,-0.49
2023-02-26T04:13:37.134Z,-0.38
2023-02-26T04:16:04.543Z,-0.40
2023-02-26T04:18:31.113Z,-0.35
2023-02-26T04:20:57.742Z,-0.34
2023-02-26T04:23:24.394Z,-0.40
2023-02-26T04:25:51.208Z,-0.36
2023-02-26T04:28:17.827Z,-0.36
2023-02-26T04:30:44.730Z,-0.43
2023-02-26T04:33:11.391Z,-0.48
2023-02-26T04:35:44.999Z,-0.39
2023-02-26T04:38:11.585Z,-0.39
2023-02-26T04:40:38.211Z,-0.47
2023-02-26T04:43:05.419Z,-0.47
2023-02-26T04:45:32.188Z,-0.47
2023-02-26T04:47:59.166Z,-0.30
2023-02-26T04:50:25.912Z,-0.34
2023-02-26T04:52:52.555Z,-0.43
2023-02-26T04:55:19.134Z,-0.36
2023-02-26T04:57:45.775Z,-0.41
2023-02-26T05:00:12.984Z,-0.41
2023-02-26T05:02:39.539Z,-0.42
2023-02-26T05:05:06.192Z,-0.38
2023-02-26T05:07:36.208Z,-0.38
2023-02-26T05:10:02.932Z,-0.31
2023-02-26T05:12:29.508Z,-0.32
2023-02-26T05:14:56.135Z,-0.42
2023-02-26T05:17:22.774Z,-0.46
2023-02-26T05:19:49.499Z,-0.41
2023-02-26T05:22:16.258Z,-0.41
2023-02-26T05:24:46.326Z,-0.47
2023-02-26T05:27:13.273Z,-0.50
2023-02-26T05:29:42.212Z,-0.53
2023-02-26T05:32:08.987Z,-0.51
2023-02-26T05:34:36.017Z,-0.54
2023-02-26T05:37:02.797Z,-0.63
2023-02-26T05:39:30.646Z,-0.45
2023-02-26T05:41:57.484Z,-0.52
2023-02-26T05:44:24.403Z,-0.59
2023-02-26T05:46:51.186Z,-0.52
2023-02-26T05:49:17.946Z,-0.46
2023-02-26T05:51:44.621Z,-0.40
2023-02-26T05:54:11.428Z,-0.45
2023-02-26T05:56:38.222Z,-0.54
2023-02-26T05:59:05.230Z,-0.49
2023-02-26T06:01:31.959Z,-0.45
2023-02-26T06:03:58.886Z,-0.51
2023-02-26T06:06:27.134Z,-0.46
2023-02-26T06:08:54.028Z,-0.59
2023-02-26T06:11:20.706Z,-0.53
2023-02-26T06:13:47.596Z,-0.58
2023-02-26T06:16:14.490Z,-0.68
2023-02-26T06:18:41.246Z,-0.78
2023-02-26T06:21:08.112Z,-0.71
2023-02-26T06:23:34.930Z,-0.75
2023-02-26T06:26:01.671Z,-0.75
2023-02-26T06:28:28.367Z,-0.76
2023-02-26T06:30:55.133Z,-0.79
2023-02-26T06:33:21.997Z,-0.68
2023-02-26T06:35:48.795Z,-0.73
2023-02-26T06:38:15.492Z,-0.68
2023-02-26T06:40:42.314Z,-0.58
2023-02-26T06:43:09.216Z,-0.45
2023-02-26T06:45:36.177Z,-0.60
2023-02-26T06:48:02.869Z,-0.41
2023-02-26T06:50:29.566Z,-0.52
2023-02-26T06:52:56.872Z,-0.54
2023-02-26T06:55:26.890Z,-0.42
2023-02-26T06:57:54.718Z,-0.56
2023-02-26T07:00:22.064Z,-0.43
2023-02-26T07:02:49.524Z,-0.41
2023-02-26T07:05:16.315Z,-0.48
2023-02-26T07:07:43.118Z,-0.30
2023-02-26T07:10:11.772Z,-0.31
2023-02-26T07:12:38.916Z,-0.30
2023-02-26T07:15:07.179Z,-0.32
2023-02-26T07:17:36.568Z,-0.24
2023-02-26T07:20:06.684Z,-0.14
2023-02-26T07:22:36.279Z,-0.06
2023-02-26T07:25:04.388Z,0.15
2023-02-26T07:27:33.332Z,0.34
2023-02-26T07:30:00.437Z,0.45
2023-02-26T07:32:27.520Z,0.55
2023-02-26T07:34:54.238Z,0.45
2023-02-26T07:37:21.364Z,0.48
2023-02-26T07:39:48.051Z,0.61
2023-02-26T07:42:14.871Z,0.51
2023-02-26T07:44:41.596Z,0.45
2023-02-26T07:47:09.385Z,0.46
2023-02-26T07:49:36.191Z,0.49
2023-02-26T07:52:03.003Z,0.51
2023-02-26T07:54:29.612Z,0.56
2023-02-26T07:56:56.278Z,0.29
2023-02-26T07:59:22.964Z,0.28
2023-02-26T08:01:49.969Z,0.23
2023-02-26T08:04:16.802Z,0.16
2023-02-26T08:06:43.522Z,0.07
2023-02-26T08:09:10.310Z,0.02
2023-02-26T08:11:39.918Z,-0.16
2023-02-26T08:14:07.548Z,-0.09
2023-02-26T08:16:34.340Z,-0.20
2023-02-26T08:19:01.159Z,-0.07
2023-02-26T08:21:27.786Z,0.02
2023-02-26T08:23:54.390Z,0.05
2023-02-26T08:26:21.293Z,0.22
2023-02-26T08:28:48.414Z,0.24
2023-02-26T08:31:15.628Z,0.29
2023-02-26T08:33:42.603Z,0.44
2023-02-26T08:36:09.614Z,0.54
2023-02-26T08:38:36.432Z,0.49
2023-02-26T08:41:03.544Z,0.46
2023-02-26T08:43:30.251Z,0.57
2023-02-26T08:45:57.764Z,0.69
2023-02-26T08:48:24.674Z,0.80
2023-02-26T08:50:51.373Z,0.74
2023-02-26T08:53:18.213Z,0.86
2023-02-26T08:55:51.297Z,0.89
2023-02-26T08:58:18.508Z,0.96
2023-02-26T09:00:45.727Z,0.99
2023-02-26T09:03:12.671Z,0.98
2023-02-26T09:05:40.953Z,0.95
2023-02-26T09:08:08.666Z,0.99
2023-02-26T09:10:35.871Z,1.21
2023-02-26T09:13:02.595Z,1.34
2023-02-26T09:15:29.393Z,1.41
2023-02-26T09:17:56.217Z,1.52
2023-02-26T09:20:22.934Z,1.49
2023-02-26T09:22:49.765Z,1.72
2023-02-26T09:25:16.625Z,1.70
2023-02-26T09:27:45.436Z,1.96
2023-02-26T09:30:12.970Z,2.06
2023-02-26T09:32:39.893Z,2.33
2023-02-26T09:35:07.164Z,2.28
2023-02-26T09:37:34.110Z,1.89
2023-02-26T09:40:00.929Z,2.02
2023-02-26T09:43:00.517Z,1.99
2023-02-26T09:45:33.494Z,2.47
2023-02-26T09:48:02.919Z,2.59
2023-02-26T09:50:46.835Z,2.66
2023-02-26T09:53:20.909Z,2.97
2023-02-26T09:55:50.288Z,2.83
2023-02-26T09:58:32.527Z,2.64
2023-02-26T10:01:20.388Z,3.07
2023-02-26T10:04:12.160Z,2.79
2023-02-26T10:06:47.122Z,2.51
2023-02-26T10:09:38.066Z,2.85
2023-02-26T10:12:24.287Z,2.99
2023-02-26T10:15:13.517Z,2.92
2023-02-26T10:17:45.904Z,3.09
2023-02-26T10:20:42.481Z,2.89
2023-02-26T10:23:15.135Z,2.61
2023-02-26T10:25:45.738Z,2.72
2023-02-26T10:28:34.848Z,2.48
2023-02-26T10:31:20.601Z,2.47
2023-02-26T10:33:54.095Z,1.99
2023-02-26T10:37:02.621Z,2.15
2023-02-26T10:39:39.007Z,2.26
2023-02-26T10:42:13.337Z,2.36
2023-02-26T10:44:58.744Z,2.67
2023-02-26T10:47:34.225Z,2.66
2023-02-26T10:50:08.455Z,2.79
2023-02-26T10:52:36.359Z,2.99
2023-02-26T10:55:26.817Z,2.57
2023-02-26T10:58:05.817Z,2.45
2023-02-26T11:00:35.267Z,2.52
2023-02-26T11:03:06.089Z,2.09
2023-02-26T11:05:33.767Z,2.32
2023-02-26T11:08:04.275Z,2.80
2023-02-26T11:10:42.716Z,3.35
2023-02-26T11:13:09.635Z,3.62
2023-02-26T11:15:39.280Z,3.88
2023-02-26T11:18:05.975Z,3.77
2023-02-26T11:20:43.873Z,3.37
2023-02-26T11:23:13.999Z,3.38
2023-02-26T11:25:41.083Z,3.02
2023-02-26T11:28:20.310Z,2.78
2023-02-26T11:30:49.186Z,2.75
2023-02-26T11:33:28.022Z,2.71
2023-02-26T11:35:59.531Z,2.98
2023-02-26T11:38:27.796Z,3.47
2023-02-26T11:40:56.959Z,3.59
2023-02-26T11:43:36.398Z,3.68
2023-02-26T11:46:05.925Z,3.34
2023-02-26T11:48:39.716Z,3.19
2023-02-26T11:51:07.724Z,3.04
2023-02-26T11:53:35.542Z,2.87
2023-02-26T11:56:14.080Z,2.80
2023-02-26T11:58:44.169Z,2.86
2023-02-26T12:01:14.903Z,2.85
2023-02-26T12:03:46.343Z,2.90
2023-02-26T12:06:18.011Z,2.86
2023-02-26T12:08:50.562Z,2.79
2023-02-26T12:11:39.262Z,2.50
2023-02-26T12:14:22.520Z,2.46
2023-02-26T12:17:08.213Z,2.82
2023-02-26T12:19:52.636Z,2.68
2023-02-26T12:22:38.172Z,3.39
2023-02-26T12:25:36.057Z,3.62
2023-02-26T12:28:24.769Z,3.52
2023-02-26T12:31:15.857Z,3.47
2023-02-26T12:34:04.022Z,3.55
2023-02-26T12:36:48.388Z,3.64
2023-02-26T12:39:47.396Z,3.75
2023-02-26T12:42:42.492Z,3.73
2023-02-26T12:45:34.044Z,3.72
2023-02-26T12:48:26.252Z,3.36
2023-02-26T12:51:03.058Z,3.44
2023-02-26T12:53:52.422Z,3.23
2023-02-26T12:56:26.008Z,3.20
2023-02-26T12:59:29.719Z,3.20
2023-02-26T13:02:20.216Z,3.43
2023-02-26T13:05:18.351Z,3.44
2023-02-26T13:07:52.932Z,3.77
2023-02-26T13:10:46.560Z,3.88
2023-02-26T13:13:22.186Z,3.49
2023-02-26T13:16:29.634Z,3.43
2023-02-26T13:19:03.104Z,3.18
2023-02-26T13:21:34.802Z,2.80
2023-02-26T13:24:13.942Z,2.96
2023-02-26T13:26:42.204Z,3.08
2023-02-26T13:29:19.522Z,3.13
2023-02-26T13:32:05.652Z,2.83
2023-02-26T13:34:42.699Z,3.08
2023-02-26T13:37:39.216Z,3.13
2023-02-26T13:40:27.778Z,3.41
2023-02-26T13:43:10.775Z,3.54
2023-02-26T13:46:49.642Z,3.43
2023-02-26T13:49:52.125Z,3.58
2023-02-26T13:52:30.217Z,3.60
2023-02-26T13:54:59.377Z,3.37
2023-02-26T13:57:37.200Z,3.18
2023-02-26T14:00:29.589Z,2.98
2023-02-26T14:02:58.587Z,2.89
2023-02-26T14:05:45.399Z,2.80
2023-02-26T14:08:39.904Z,2.59
2023-02-26T14:11:15.824Z,2.61
2023-02-26T14:13:42.730Z,2.53
2023-02-26T14:16:27.859Z,2.59
2023-02-26T14:19:05.160Z,2.62
2023-02-26T14:21:58.935Z,2.53
2023-02-26T14:24:36.427Z,2.48
2023-02-26T14:27:27.887Z,2.45
2023-02-26T14:29:58.278Z,2.69
2023-02-26T14:32:47.070Z,2.74
2023-02-26T14:35:16.932Z,2.85
2023-02-26T14:37:57.269Z,2.71
2023-02-26T14:40:28.235Z,2.86
2023-02-26T14:43:03.960Z,2.86
2023-02-26T14:45:42.403Z,2.73
2023-02-26T14:48:14.868Z,2.90
2023-02-26T14:50:52.166Z,2.90
2023-02-26T14:53:44.990Z,2.77
2023-02-26T14:56:24.560Z,2.71
2023-02-26T14:59:18.854Z,2.66
2023-02-26T15:02:10.038Z,2.55
2023-02-26T15:05:02.491Z,2.52
2023-02-26T15:07:53.471Z,2.56
2023-02-26T15:10:42.007Z,2.43
2023-02-26T15:13:33.323Z,2.44
2023-02-26T15:16:14.615Z,2.57
2023-02-26T15:19:04.802Z,2.40
2023-02-26T15:22:03.798Z,2.48
2023-02-26T15:24:31.133Z,2.44
2023-02-26T15:27:01.936Z,2.55
2023-02-26T15:29:32.618Z,2.50
2023-02-26T15:32:03.354Z,2.36
2023-02-26T15:34:30.828Z,2.23
2023-02-26T15:36:58.332Z,2.05
2023-02-26T15:39:25.616Z,2.08
2023-02-26T15:41:53.261Z,2.08
2023-02-26T15:44:23.455Z,1.84
2023-02-26T15:46:55.122Z,1.79
2023-02-26T15:49:39.317Z,1.77
2023-02-26T15:52:08.207Z,1.79
2023-02-26T15:54:42.349Z,1.80
2023-02-26T15:57:10.703Z,1.64
2023-02-26T15:59:43.195Z,1.72
2023-02-26T16:02:14.695Z,1.83
2023-02-26T16:04:42.637Z,1.83
2023-02-26T16:07:11.827Z,1.67
2023-02-26T16:09:46.316Z,1.68
2023-02-26T16:12:18.103Z,1.61
2023-02-26T16:14:48.380Z,1.70
2023-02-26T16:17:24.533Z,1.83
2023-02-26T16:19:51.584Z,1.62
2023-02-26T16:22:24.485Z,1.60
2023-02-26T16:24:55.399Z,1.59
2023-02-26T16:27:25.704Z,1.37
2023-02-26T16:29:53.607Z,1.42
2023-02-26T16:32:20.470Z,1.28
2023-02-26T16:34:53.333Z,1.20
2023-02-26T16:37:49.928Z,1.21
2023-02-26T16:40:25.820Z,1.08
2023-02-26T16:43:00.645Z,0.91
2023-02-26T16:45:36.453Z,0.82
2023-02-26T16:48:13.335Z,0.83
2023-02-26T16:50:40.133Z,0.63
2023-02-26T16:53:09.496Z,0.55
2023-02-26T16:55:38.005Z,0.49
2023-02-26T16:58:07.889Z,0.34
2023-02-26T17:00:37.456Z,0.21
2023-02-26T17:03:12.506Z,0.21
2023-02-26T17:05:41.833Z,0.12
2023-02-26T17:08:20.608Z,-0.07
2023-02-26T17:10:51.735Z,-0.15
2023-02-26T17:13:27.159Z,-0.18
2023-02-26T17:15:54.435Z,-0.43
2023-02-26T17:18:21.510Z,-0.48
2023-02-26T17:20:48.305Z,-0.65
2023-02-26T17:23:17.035Z,-0.58
2023-02-26T17:25:50.338Z,-0.72
2023-02-26T17:28:26.367Z,-0.80
2023-02-26T17:30:53.774Z,-0.91
2023-02-26T17:33:20.983Z,-0.94
2023-02-26T17:35:48.139Z,-0.86
2023-02-26T17:38:15.953Z,-0.89
2023-02-26T17:40:45.262Z,-1.04
2023-02-26T17:43:12.116Z,-1.07
2023-02-26T17:45:40.414Z,-1.11
2023-02-26T17:48:08.295Z,-1.19
2023-02-26T17:51:04.508Z,-1.22
2023-02-26T17:53:40.681Z,-1.30
2023-02-26T17:56:26.017Z,-1.39
2023-02-26T17:58:55.221Z,-1.52
2023-02-26T18:01:23.511Z,-1.48
2023-02-26T18:03:50.840Z,-1.54
2023-02-26T18:06:17.623Z,-1.62
2023-02-26T18:08:46.677Z,-1.62
2023-02-26T18:11:17.153Z,-1.45
2023-02-26T18:13:43.874Z,-1.37
2023-02-26T18:16:18.773Z,-1.31
2023-02-26T18:18:45.784Z,-1.55
2023-02-26T18:21:13.052Z,-1.74
2023-02-26T18:23:40.060Z,-1.71
2023-02-26T18:26:06.997Z,-1.63
2023-02-26T18:28:33.690Z,-1.74
2023-02-26T18:31:00.438Z,-1.86
2023-02-26T18:33:27.135Z,-1.93
2023-02-26T18:35:56.710Z,-2.05
2023-02-26T18:38:26.515Z,-1.98
2023-02-26T18:40:53.823Z,-2.10
2023-02-26T18:43:20.563Z,-2.16
2023-02-26T18:45:49.263Z,-2.16
2023-02-26T18:48:17.662Z,-2.16
2023-02-26T18:50:45.144Z,-2.12
2023-02-26T18:53:12.827Z,-2.22
2023-02-26T18:55:39.487Z,-2.08
2023-02-26T18:58:06.142Z,-2.22
2023-02-26T19:00:32.921Z,-2.18
2023-02-26T19:02:59.567Z,-2.36
2023-02-26T19:05:27.158Z,-2.28
2023-02-26T19:07:54.590Z,-2.39
2023-02-26T19:10:22.261Z,-2.48
2023-02-26T19:12:51.001Z,-2.42
2023-02-26T19:15:17.957Z,-2.50
2023-02-26T19:17:44.548Z,-2.57
2023-02-26T19:20:12.140Z,-2.53
2023-02-26T19:22:40.103Z,-2.60
2023-02-26T19:25:07.109Z,-2.62
2023-02-26T19:27:33.903Z,-2.62
2023-02-26T19:30:00.571Z,-2.64
2023-02-26T19:32:28.594Z,-2.53
2023-02-26T19:34:55.324Z,-2.62
2023-02-26T19:37:22.353Z,-2.67
2023-02-26T19:39:48.990Z,-2.73
2023-02-26T19:42:18.766Z,-2.69
2023-02-26T19:44:45.424Z,-2.72
2023-02-26T19:47:12.018Z,-2.65
2023-02-26T19:49:38.781Z,-2.70
2023-02-26T19:52:06.975Z,-2.81
2023-02-26T19:54:33.725Z,-2.83
2023-02-26T19:57:00.351Z,-2.78
2023-02-26T19:59:27.093Z,-2.87
2023-02-26T20:01:53.724Z,-2.84
2023-02-26T20:04:20.432Z,-2.92
2023-02-26T20:06:47.032Z,-2.96
2023-02-26T20:09:14.606Z,-3.04
2023-02-26T20:11:41.583Z,-3.05
2023-02-26T20:14:08.771Z,-3.03
2023-02-26T20:16:37.698Z,-3.05
2023-02-26T20:19:04.498Z,-3.09
2023-02-26T20:21:31.106Z,-3.14
2023-02-26T20:23:57.862Z,-3.17
2023-02-26T20:26:24.791Z,-3.13
2023-02-26T20:28:51.410Z,-3.23
2023-02-26T20:31:18.059Z,-3.24
2023-02-26T20:33:45.022Z,-3.22
2023-02-26T20:36:11.689Z,-3.31
2023-02-26T20:38:38.351Z,-3.39
2023-02-26T20:41:05.328Z,-3.33
2023-02-26T20:43:32.512Z,-3.35
2023-02-26T20:45:59.139Z,-3.37
2023-02-26T20:48:26.533Z,-3.35
2023-02-26T20:50:59.067Z,-3.36
2023-02-26T20:53:25.798Z,-3.45
2023-02-26T20:55:52.432Z,-3.50
2023-02-26T20:58:18.990Z,-3.50
2023-02-26T21:00:45.648Z,-3.49
2023-02-26T21:03:12.418Z,-3.51
2023-02-26T21:05:39.071Z,-3.56
2023-02-26T21:08:05.907Z,-3.58
2023-02-26T21:10:32.799Z,-3.58
2023-02-26T21:13:00.373Z,-3.62
2023-02-26T21:15:29.716Z,-3.58
2023-02-26T21:17:56.324Z,-3.66
2023-02-26T21:20:23.625Z,-3.70
2023-02-26T21:22:50.410Z,-3.69
2023-02-26T21:25:17.631Z,-3.73
2023-02-26T21:27:44.291Z,-3.72
2023-02-26T21:30:12.973Z,-3.66
2023-02-26T21:32:40.216Z,-3.78
2023-02-26T21:35:08.827Z,-3.77
2023-02-26T21:37:35.464Z,-3.78
2023-02-26T21:40:02.157Z,-3.72
2023-02-26T21:42:28.759Z,-3.66
2023-02-26T21:44:55.389Z,-3.84
2023-02-26T21:47:21.974Z,-3.87
2023-02-26T21:49:48.596Z,-3.87
2023-02-26T21:52:15.384Z,-3.95
2023-02-26T21:54:43.610Z,-4.01
2023-02-26T21:57:12.657Z,-4.03
2023-02-26T21:59:39.266Z,-3.97
2023-02-26T22:02:06.164Z,-3.89
2023-02-26T22:04:33.952Z,-4.07
2023-02-26T22:07:03.577Z,-4.00
2023-02-26T22:09:30.269Z,-4.09
2023-02-26T22:11:57.117Z,-4.08
2023-02-26T22:14:24.033Z,-4.15
2023-02-26T22:16:50.653Z,-4.17
2023-02-26T22:19:17.340Z,-4.12
2023-02-26T22:21:46.331Z,-4.18
2023-02-26T22:24:13.278Z,-4.21
2023-02-26T22:26:39.856Z,-4.17
2023-02-26T22:29:09.849Z,-4.11
2023-02-26T22:31:36.598Z,-4.08
2023-02-26T22:34:06.055Z,-4.16
2023-02-26T22:36:34.638Z,-4.09
2023-02-26T22:39:01.285Z,-4.16
2023-02-26T22:41:27.975Z,-4.17
2023-02-26T22:43:55.012Z,-4.18
2023-02-26T22:46:24.680Z,-4.29
2023-02-26T22:48:51.513Z,-4.32
2023-02-26T22:51:18.142Z,-4.41
2023-02-26T22:53:45.004Z,-4.43
2023-02-26T22:56:14.865Z,-4.46
2023-02-26T22:58:41.568Z,-4.48
2023-02-26T23:01:09.125Z,-4.49
2023-02-26T23:03:35.969Z,-4.51
2023-02-26T23:06:05.081Z,-4.49
2023-02-26T23:08:31.775Z,-4.48
2023-02-26T23:11:00.885Z,-4.55
2023-02-26T23:13:30.640Z,-4.59
2023-02-26T23:15:58.212Z,-4.63
2023-02-26T23:18:24.874Z,-4.64
2023-02-26T23:20:51.667Z,-4.61
2023-02-26T23:23:18.453Z,-4.64
2023-02-26T23:25:45.637Z,-4.69
2023-02-26T23:28:12.900Z,-4.70
2023-02-26T23:30:40.189Z,-4.69
2023-02-26T23:33:07.410Z,-4.71
2023-02-26T23:35:35.203Z,-4.71
2023-02-26T23:38:05.094Z,-4.70
2023-02-26T23:40:32.460Z,-4.76
2023-02-26T23:42:59.380Z,-4.77
2023-02-26T23:45:26.444Z,-4.72
2023-02-26T23:47:53.121Z,-4.72
2023-02-26T23:50:19.732Z,-4.67
2023-02-26T23:52:46.377Z,-4.66
2023-02-26T23:55:13.161Z,-4.66
2023-02-26T23:57:42.964Z,-4.67
